Time;durP1;ratioP1;P1;durP2;ratioP2;P2;SDS_P1;SDS_P2;PMS_P1;PMS_P2;Temp;Humidity;BMP_temperature;BMP_pressure;BME280_temperature;BME280_humidity;BME280_pressure;Samples;Min_cycle;Max_cycle;Signal;HPM_P1;HPM_P2
2024/02/28 00:01:52;;;;;;;;;9.25;6.00;;;;;5.93;78.50;101585.50;5069633;27;45451;-66
2024/02/28 00:04:19;;;;;;;;;4.00;3.00;;;;;5.92;78.44;101571.66;5070714;27;73958;-67
2024/02/28 00:06:46;;;;;;;;;13.00;8.00;;;;;5.92;78.72;101579.44;5073209;27;45792;-66
2024/02/28 00:09:12;;;;;;;;;9.00;7.50;;;;;5.93;79.02;101575.97;5073022;27;45335;-67
2024/02/28 00:11:44;;;;;;;;;10.75;8.50;;;;;5.88;79.05;101567.31;5082077;27;45830;-66
2024/02/28 00:14:10;;;;;;;;;8.25;7.75;;;;;5.87;79.43;101576.81;5063910;27;46218;-67
2024/02/28 00:16:36;;;;;;;;;9.25;6.75;;;;;5.89;79.30;101571.63;5067670;27;46449;-66
2024/02/28 00:19:01;;;;;;;;;11.50;8.00;;;;;5.91;79.53;101569.91;5067187;28;45434;-67
2024/02/28 00:21:26;;;;;;;;;12.75;6.50;;;;;5.85;79.50;101568.16;5070356;27;45443;-67
2024/02/28 00:23:52;;;;;;;;;11.00;8.75;;;;;5.90;79.76;101570.78;5072554;27;75600;-67
2024/02/28 00:26:17;;;;;;;;;14.50;9.00;;;;;5.91;79.46;101564.72;5065621;27;56063;-67
2024/02/28 00:28:42;;;;;;;;;7.00;7.00;;;;;5.88;79.45;101565.56;5064637;27;61357;-67
2024/02/28 00:31:08;;;;;;;;;15.25;9.75;;;;;5.87;79.53;101563.81;5062136;27;56844;-67
2024/02/28 00:33:33;;;;;;;;;9.50;8.00;;;;;5.86;79.86;101569.00;5066516;27;64345;-67
2024/02/28 00:35:58;;;;;;;;;14.00;7.75;;;;;5.84;79.78;101568.13;5069718;27;55091;-67
2024/02/28 00:38:23;;;;;;;;;13.75;9.50;;;;;5.83;80.04;101574.22;5071483;27;62784;-67
2024/02/28 00:40:49;;;;;;;;;14.00;8.75;;;;;5.81;80.18;101570.75;5068706;27;73425;-67
2024/02/28 00:43:14;;;;;;;;;10.75;9.50;;;;;5.80;80.30;101561.19;5065916;27;76626;-67
2024/02/28 00:45:39;;;;;;;;;12.00;8.75;;;;;5.76;80.48;101560.31;5063093;27;73291;-67
2024/02/28 00:48:05;;;;;;;;;10.00;7.00;;;;;5.79;80.44;101575.91;5076731;28;45671;-67
2024/02/28 00:50:30;;;;;;;;;8.75;7.50;;;;;5.80;80.44;101592.38;5075100;28;45445;-68
2024/02/28 00:52:56;;;;;;;;;13.00;9.00;;;;;5.79;80.45;101586.31;5074492;27;69182;-68
2024/02/28 00:55:21;;;;;;;;;13.25;7.75;;;;;5.79;80.89;101585.41;5064938;27;73281;-68
2024/02/28 00:57:47;;;;;;;;;12.75;8.25;;;;;5.79;81.01;101586.31;5067597;28;68299;-66
2024/02/28 01:00:12;;;;;;;;;12.50;8.75;;;;;5.77;81.20;101579.34;5062326;27;65531;-66
2024/02/28 01:02:38;;;;;;;;;15.25;13.00;;;;;5.78;81.25;101586.28;5069926;27;45585;-66
2024/02/28 01:05:03;;;;;;;;;8.25;7.00;;;;;5.74;81.30;101582.81;5074053;27;45434;-67
2024/02/28 01:07:28;;;;;;;;;16.75;8.00;;;;;5.74;81.34;101592.31;5063002;28;45290;-66
2024/02/28 01:09:54;;;;;;;;;13.00;6.75;;;;;5.71;81.13;101586.25;5072135;27;45469;-66
2024/02/28 01:12:19;;;;;;;;;8.75;8.25;;;;;5.71;81.35;101591.44;5073892;27;73661;-65
2024/02/28 01:14:44;;;;;;;;;12.75;8.00;;;;;5.71;81.44;101581.03;5070463;27;48655;-66
2024/02/28 01:17:10;;;;;;;;;8.50;8.00;;;;;5.71;81.15;101580.19;5060084;27;69292;-66
2024/02/28 01:19:35;;;;;;;;;18.00;7.75;;;;;5.68;81.41;101572.38;5069108;28;72488;-66
2024/02/28 01:22:01;;;;;;;;;9.75;7.75;;;;;5.67;81.29;101576.69;5073215;27;46134;-67
2024/02/28 01:24:26;;;;;;;;;12.75;9.25;;;;;5.59;81.55;101556.72;5061111;28;51432;-67
2024/02/28 01:26:51;;;;;;;;;9.00;8.75;;;;;5.61;81.42;101563.69;5060816;27;51748;-68
2024/02/28 01:29:17;;;;;;;;;18.00;12.00;;;;;5.61;81.64;101561.09;5068943;28;59813;-67
2024/02/28 01:31:42;;;;;;;;;11.50;11.00;;;;;5.58;81.63;101563.66;5064018;27;68186;-67
2024/02/28 01:34:08;;;;;;;;;13.25;7.50;;;;;5.60;81.67;101571.47;5074457;27;73007;-67
2024/02/28 01:36:33;;;;;;;;;10.25;8.25;;;;;5.60;81.79;101572.31;5087979;27;45431;-66
2024/02/28 01:38:58;;;;;;;;;10.00;8.75;;;;;5.63;81.85;101576.66;5068303;28;72026;-66
2024/02/28 01:41:24;;;;;;;;;9.00;8.00;;;;;5.60;81.90;101564.53;5061730;27;61977;-66
2024/02/28 01:43:49;;;;;;;;;14.25;11.25;;;;;5.64;81.74;101575.81;5062543;28;47417;-66
2024/02/28 01:46:25;;;;;;;;;19.75;8.75;;;;;5.65;81.97;101578.41;5071656;27;55517;-65
2024/02/28 01:48:51;;;;;;;;;13.00;7.75;;;;;5.66;81.85;101577.53;5065751;28;45565;-66
2024/02/28 01:51:17;;;;;;;;;16.00;9.50;;;;;5.65;81.97;101578.41;5060058;28;45959;-66
2024/02/28 01:53:42;;;;;;;;;15.25;12.00;;;;;5.63;81.85;101582.75;5064711;28;45391;-66
2024/02/28 01:56:08;;;;;;;;;12.50;10.25;;;;;5.64;82.11;101587.06;5075124;28;45446;-66
2024/02/28 01:58:33;;;;;;;;;16.50;13.50;;;;;5.64;82.22;101589.66;5067834;28;68127;-66
2024/02/28 02:00:59;;;;;;;;;17.25;11.50;;;;;5.65;82.15;101581.03;5068723;28;76808;-67
2024/02/28 02:03:24;;;;;;;;;15.75;11.25;;;;;5.66;82.15;101584.47;5064480;28;72615;-67
2024/02/28 02:05:49;;;;;;;;;14.00;7.25;;;;;5.64;82.14;101581.88;5064482;28;45233;-66
2024/02/28 02:08:15;;;;;;;;;17.25;10.75;;;;;5.61;82.39;101575.78;5066452;28;64883;-66
2024/02/28 02:10:41;;;;;;;;;12.75;10.00;;;;;5.60;82.35;101568.88;5084874;27;46224;-65
2024/02/28 02:13:07;;;;;;;;;12.00;8.00;;;;;5.63;82.32;101576.66;5063452;28;45286;-66
2024/02/28 02:15:33;;;;;;;;;9.00;7.25;;;;;5.64;82.48;101570.63;5070408;28;45332;-66
2024/02/28 02:17:58;;;;;;;;;11.25;8.75;;;;;5.63;82.44;101569.75;5065481;28;45459;-66
2024/02/28 02:20:25;;;;;;;;;5.00;5.00;;;;;5.64;82.43;101571.47;5069049;28;61333;-67
2024/02/28 02:22:52;;;;;;;;;12.00;7.25;;;;;5.66;82.58;101571.50;5075725;28;45851;-68
2024/02/28 02:25:17;;;;;;;;;12.25;9.00;;;;;5.66;82.31;101580.13;5063319;28;45722;-67
2024/02/28 02:27:43;;;;;;;;;13.50;9.00;;;;;5.68;82.53;101577.56;5077769;28;45472;-66
2024/02/28 02:30:08;;;;;;;;;11.00;9.00;;;;;5.66;82.35;101572.34;5063333;27;49971;-66
2024/02/28 02:32:34;;;;;;;;;8.00;7.00;;;;;5.68;82.46;101577.56;5068493;28;45700;-65
2024/02/28 02:34:59;;;;;;;;;13.25;8.75;;;;;5.64;82.47;101579.25;5062573;28;45612;-66
2024/02/28 02:37:24;;;;;;;;;13.00;7.00;;;;;5.63;82.55;101571.47;5063428;27;71658;-66
2024/02/28 02:39:51;;;;;;;;;12.00;11.25;;;;;5.64;82.52;101575.81;5071128;28;46012;-67
2024/02/28 02:42:17;;;;;;;;;15.25;8.00;;;;;5.63;82.42;101577.53;5073883;28;45424;-67
2024/02/28 02:44:42;;;;;;;;;7.50;7.00;;;;;5.63;82.73;101576.66;5075145;28;45427;-66
2024/02/28 02:47:08;;;;;;;;;13.25;8.25;;;;;5.64;82.89;101575.81;5071649;27;45319;-66
2024/02/28 02:49:33;;;;;;;;;9.25;9.25;;;;;5.63;83.18;101582.75;5075563;27;51275;-66
2024/02/28 02:51:58;;;;;;;;;14.25;11.50;;;;;5.64;83.47;101581.88;5069317;28;45312;-65
2024/02/28 02:54:24;;;;;;;;;36.75;25.75;;;;;5.68;83.91;101582.75;5078447;27;45451;-65
2024/02/28 02:56:49;;;;;;;;;20.75;14.75;;;;;5.67;83.78;101581.91;5073072;28;73297;-66
2024/02/28 02:59:14;;;;;;;;;16.50;12.25;;;;;5.67;84.03;101583.63;5070402;28;45331;-67
2024/02/28 03:01:40;;;;;;;;;17.00;10.50;;;;;5.67;83.71;101592.28;5067705;28;45430;-66
2024/02/28 03:04:05;;;;;;;;;8.75;8.25;;;;;5.66;83.30;101589.66;5065652;28;64141;-67
2024/02/28 03:06:32;;;;;;;;;12.50;8.50;;;;;5.62;83.46;101587.91;5082503;27;71784;-65
2024/02/28 03:08:57;;;;;;;;;16.50;12.50;;;;;5.64;83.47;101593.97;5077802;28;47191;-67
2024/02/28 03:11:22;;;;;;;;;13.75;11.25;;;;;5.64;83.41;101600.03;5079358;28;45350;-67
2024/02/28 03:13:48;;;;;;;;;12.25;9.25;;;;;5.65;83.31;101608.72;5069249;28;47072;-66
2024/02/28 03:16:13;;;;;;;;;13.00;9.00;;;;;5.63;83.22;101607.81;5077169;28;45330;-67
2024/02/28 03:18:38;;;;;;;;;12.50;11.00;;;;;5.64;83.16;101612.16;5071877;27;55180;-67
2024/02/28 03:21:04;;;;;;;;;16.25;12.50;;;;;5.58;83.17;101604.31;5074956;27;61279;-65
2024/02/28 03:23:29;;;;;;;;;15.75;11.50;;;;;5.60;82.78;101615.59;5070199;27;45459;-66
2024/02/28 03:25:55;;;;;;;;;12.00;11.00;;;;;5.61;83.03;101628.59;5076752;28;59702;-66
2024/02/28 03:28:20;;;;;;;;;13.75;12.00;;;;;5.57;83.11;101628.56;5068866;27;46789;-66
2024/02/28 03:30:45;;;;;;;;;13.50;12.00;;;;;5.55;83.19;101633.72;5070434;27;61709;-66
2024/02/28 03:33:11;;;;;;;;;13.50;11.00;;;;;5.53;82.96;101632.84;5077543;28;49039;-66
2024/02/28 03:35:36;;;;;;;;;17.75;12.25;;;;;5.51;83.26;101621.59;5065120;28;73565;-66
2024/02/28 03:38:01;;;;;;;;;9.25;9.25;;;;;5.48;83.34;101621.56;5074485;27;59484;-66
2024/02/28 03:40:27;;;;;;;;;14.00;13.25;;;;;5.52;83.38;101623.31;5075024;27;63670;-66
2024/02/28 03:42:52;;;;;;;;;10.75;8.00;;;;;5.52;83.38;101612.94;5069699;27;69828;-66
2024/02/28 03:45:19;;;;;;;;;19.25;8.75;;;;;5.51;83.25;101619.84;5075631;27;54709;-66
2024/02/28 03:47:44;;;;;;;;;11.00;7.00;;;;;5.54;83.32;101631.13;5064393;28;47044;-66
2024/02/28 03:50:10;;;;;;;;;14.00;11.25;;;;;5.54;83.43;101637.16;5065944;28;56261;-67
2024/02/28 03:52:35;;;;;;;;;12.00;12.00;;;;;5.52;83.23;101644.09;5066212;27;45386;-66
2024/02/28 03:55:00;;;;;;;;;13.00;11.00;;;;;5.49;83.35;101642.34;5069145;27;45310;-66
2024/02/28 03:57:26;;;;;;;;;12.25;10.00;;;;;5.49;83.42;101631.09;5072131;27;64159;-67
2024/02/28 03:59:51;;;;;;;;;18.50;11.50;;;;;5.46;83.46;101636.25;5070606;27;70974;-67
2024/02/28 04:02:16;;;;;;;;;20.00;12.25;;;;;5.45;83.64;101626.72;5070176;28;68222;-67
2024/02/28 04:04:42;;;;;;;;;13.00;9.25;;;;;5.43;83.62;101613.72;5069604;27;73006;-67
2024/02/28 04:07:08;;;;;;;;;9.50;8.00;;;;;5.45;83.62;101611.13;5073091;28;47089;-67
2024/02/28 04:09:33;;;;;;;;;15.75;11.50;;;;;5.38;83.72;101602.41;5071315;27;52086;-67
2024/02/28 04:11:58;;;;;;;;;11.75;9.50;;;;;5.46;83.78;101613.75;5067570;27;66452;-67
2024/02/28 04:14:24;;;;;;;;;15.25;10.75;;;;;5.48;83.65;101616.38;5077326;27;73259;-66
2024/02/28 04:16:50;;;;;;;;;14.75;11.75;;;;;5.49;83.71;101612.94;5064035;27;46095;-67
2024/02/28 04:19:15;;;;;;;;;14.00;7.75;;;;;5.51;83.85;101603.41;5066926;27;45429;-67
2024/02/28 04:21:41;;;;;;;;;11.25;8.75;;;;;5.54;83.61;101612.94;5061874;27;45506;-65
2024/02/28 04:24:06;;;;;;;;;14.25;13.00;;;;;5.57;83.56;101623.38;5067502;28;44910;-65
2024/02/28 04:26:32;;;;;;;;;17.00;12.00;;;;;5.57;83.54;101621.63;5071472;28;46688;-65
2024/02/28 04:28:57;;;;;;;;;17.00;11.00;;;;;5.60;83.67;101629.44;5074240;27;72805;-65
2024/02/28 04:31:23;;;;;;;;;13.50;12.00;;;;;5.61;83.57;101628.59;5066494;27;60911;-66
2024/02/28 04:33:48;;;;;;;;;10.25;9.00;;;;;5.64;83.60;101630.34;5066942;28;45845;-67
2024/02/28 04:36:14;;;;;;;;;14.50;11.50;;;;;5.66;83.78;101623.44;5065924;27;74523;-67
2024/02/28 04:38:40;;;;;;;;;13.25;11.00;;;;;5.68;83.57;101624.31;5062157;28;45871;-68
2024/02/28 04:41:05;;;;;;;;;14.25;10.50;;;;;5.69;83.54;101620.84;5069145;27;66634;-67
2024/02/28 04:43:30;;;;;;;;;12.00;9.50;;;;;5.71;83.63;101621.75;5074613;27;67949;-67
2024/02/28 04:45:56;;;;;;;;;9.75;9.75;;;;;5.74;83.77;101620.88;5068819;27;75578;-67
2024/02/28 04:48:21;;;;;;;;;9.25;7.50;;;;;5.74;83.72;101626.97;5075356;27;45463;-67
2024/02/28 04:50:48;;;;;;;;;12.00;11.00;;;;;5.73;84.05;101622.63;5071604;27;67988;-66
2024/02/28 04:53:13;;;;;;;;;12.50;7.75;;;;;5.74;84.14;101633.84;5066993;28;45438;-65
2024/02/28 04:55:39;;;;;;;;;14.75;8.25;;;;;5.74;84.27;101637.34;5074959;27;74381;-66
2024/02/28 04:58:04;;;;;;;;;14.25;14.00;;;;;5.77;84.48;101631.28;5065737;27;45276;-65
2024/02/28 05:00:29;;;;;;;;;18.75;12.50;;;;;5.82;84.22;101634.78;5069104;27;51135;-65
2024/02/28 05:02:55;;;;;;;;;21.50;14.50;;;;;5.86;84.11;101629.66;5075268;27;45771;-66
2024/02/28 05:05:20;;;;;;;;;15.75;12.00;;;;;5.94;84.22;101627.09;5065173;28;73596;-67
2024/02/28 05:07:45;;;;;;;;;13.50;12.50;;;;;5.98;83.88;101628.00;5063599;27;73185;-67
2024/02/28 05:10:10;;;;;;;;;18.00;11.50;;;;;5.99;83.53;101629.75;5070882;27;70343;-67
2024/02/28 05:12:36;;;;;;;;;14.50;12.75;;;;;6.06;83.56;101632.41;5069338;27;45413;-67
2024/02/28 05:15:01;;;;;;;;;15.00;12.25;;;;;6.09;83.38;101639.31;5064978;27;54460;-65
2024/02/28 05:17:27;;;;;;;;;14.50;12.25;;;;;6.11;83.56;101632.44;5067889;28;66484;-67
2024/02/28 05:19:52;;;;;;;;;13.00;8.75;;;;;6.14;83.31;101637.63;5066569;27;45274;-66
2024/02/28 05:22:18;;;;;;;;;13.25;12.50;;;;;6.16;83.29;101642.84;5068729;28;45380;-67
2024/02/28 05:24:46;;;;;;;;;17.75;12.75;;;;;6.19;83.31;101650.66;5074506;27;74123;-67
2024/02/28 05:27:11;;;;;;;;;14.00;13.00;;;;;6.21;83.19;101655.00;5075477;27;45434;-67
2024/02/28 05:29:36;;;;;;;;;7.25;6.00;;;;;6.24;83.30;101656.75;5074915;28;45430;-67
2024/02/28 05:32:02;;;;;;;;;10.25;9.50;;;;;6.30;83.22;101664.56;5066256;28;45388;-68
2024/02/28 05:34:27;;;;;;;;;15.75;12.75;;;;;6.37;83.09;101657.69;5069018;27;72446;-67
2024/02/28 05:36:52;;;;;;;;;13.25;10.00;;;;;6.43;83.15;101661.19;5065404;28;73223;-67
2024/02/28 05:39:18;;;;;;;;;14.25;11.25;;;;;6.50;83.11;101671.63;5067932;27;56078;-67
2024/02/28 05:41:43;;;;;;;;;11.00;11.00;;;;;6.57;82.93;101665.56;5071084;28;45584;-67
2024/02/28 05:44:08;;;;;;;;;13.25;9.00;;;;;6.62;82.79;101659.56;5058406;27;74960;-66
2024/02/28 05:46:33;;;;;;;;;14.00;10.00;;;;;6.64;82.26;101667.38;5071885;27;72883;-66
2024/02/28 05:48:59;;;;;;;;;10.00;7.50;;;;;6.67;82.20;101667.38;5062547;27;64617;-65
2024/02/28 05:51:24;;;;;;;;;13.00;11.00;;;;;6.62;81.78;101645.66;5074656;27;45523;-67
2024/02/28 05:53:49;;;;;;;;;11.50;9.00;;;;;6.59;81.93;101643.94;5063316;27;75542;-68
2024/02/28 05:56:16;;;;;;;;;14.25;11.75;;;;;6.58;81.84;101652.59;5078517;27;45541;-68
2024/02/28 05:58:43;;;;;;;;;13.00;8.75;;;;;6.55;81.69;101650.00;5076596;27;45476;-69
2024/02/28 06:01:10;;;;;;;;;9.75;9.50;;;;;6.52;81.79;101647.38;5075334;27;45501;-68
2024/02/28 06:03:35;;;;;;;;;15.50;11.50;;;;;6.52;81.92;101655.19;5075748;28;46225;-68
2024/02/28 06:06:03;;;;;;;;;15.25;12.50;;;;;6.51;81.88;101647.38;5064503;28;45459;-68
2024/02/28 06:08:29;;;;;;;;;14.75;9.25;;;;;6.47;81.84;101649.94;5077846;27;45268;-67
2024/02/28 06:10:54;;;;;;;;;16.50;13.25;;;;;6.48;81.95;101656.03;5073298;27;72084;-66
2024/02/28 06:13:19;;;;;;;;;15.00;10.75;;;;;6.48;82.00;101650.84;5070700;27;75410;-66
2024/02/28 06:15:45;;;;;;;;;18.25;11.75;;;;;6.45;81.91;101654.28;5065750;28;45335;-67
2024/02/28 06:18:10;;;;;;;;;14.50;9.75;;;;;6.46;81.88;101656.03;5067397;27;54677;-67
2024/02/28 06:20:36;;;;;;;;;13.00;10.25;;;;;6.45;82.15;101650.81;5069929;27;45291;-68
2024/02/28 06:23:02;;;;;;;;;18.25;12.50;;;;;6.49;82.06;101659.50;5070965;27;46123;-67
2024/02/28 06:25:28;;;;;;;;;12.25;10.25;;;;;6.49;81.86;101657.75;5073601;27;45304;-68
2024/02/28 06:27:53;;;;;;;;;13.75;10.00;;;;;6.46;81.86;101655.13;5079592;27;45197;-67
2024/02/28 06:30:19;;;;;;;;;19.00;13.75;;;;;6.50;82.29;101663.81;5075445;27;45292;-67
2024/02/28 06:32:44;;;;;;;;;13.25;10.00;;;;;6.55;82.13;101673.41;5069806;27;45403;-67
2024/02/28 06:35:09;;;;;;;;;13.25;10.75;;;;;6.60;82.27;101668.19;5068617;27;56698;-66
2024/02/28 06:37:35;;;;;;;;;17.25;13.50;;;;;6.66;81.96;101668.25;5068158;28;68985;-70
2024/02/28 06:40:01;;;;;;;;;19.00;14.50;;;;;6.75;81.97;101670.00;5068118;27;63573;-68
2024/02/28 06:42:27;;;;;;;;;13.00;10.75;;;;;6.79;81.99;101677.81;5071000;28;45491;-64
2024/02/28 06:44:52;;;;;;;;;13.75;13.25;;;;;6.86;81.79;101685.66;5072780;27;63158;-64
2024/02/28 06:47:20;;;;;;;;;16.25;12.75;;;;;6.90;81.56;101685.66;5062677;28;67804;-68
2024/02/28 06:49:45;;;;;;;;;20.50;12.50;;;;;6.97;81.57;101683.97;5072617;28;45193;-68
2024/02/28 06:52:11;;;;;;;;;15.75;12.50;;;;;7.04;81.39;101696.97;5069891;28;46618;-69
2024/02/28 06:54:36;;;;;;;;;21.50;11.50;;;;;7.10;81.47;101690.06;5075042;27;73283;-67
2024/02/28 06:57:02;;;;;;;;;17.50;11.25;;;;;7.18;81.34;101694.41;5074563;27;67420;-68
2024/02/28 06:59:28;;;;;;;;;13.00;13.00;;;;;7.23;81.09;101690.09;5071192;27;45224;-67
2024/02/28 07:01:53;;;;;;;;;17.50;13.25;;;;;7.29;81.13;101699.66;5079949;27;46065;-70
2024/02/28 07:04:18;;;;;;;;;17.50;10.50;;;;;7.35;80.85;101698.81;5083683;27;64068;-68
2024/02/28 07:06:44;;;;;;;;;16.00;12.50;;;;;7.38;80.63;101701.41;5070136;27;45583;-64
2024/02/28 07:09:10;;;;;;;;;16.25;10.75;;;;;7.44;80.55;101693.63;5075420;27;45629;-66
2024/02/28 07:11:37;;;;;;;;;16.75;13.25;;;;;7.50;80.27;101697.97;5080527;27;45480;-68
2024/02/28 07:14:03;;;;;;;;;22.00;14.25;;;;;7.53;80.18;101704.03;5072394;28;45362;-75
2024/02/28 07:16:34;;;;;;;;;16.75;10.50;;;;;7.60;80.11;101708.38;5074941;28;68014;-71
2024/02/28 07:19:00;;;;;;;;;14.25;10.75;;;;;7.66;79.89;101694.50;5075177;27;45519;-70
2024/02/28 07:21:25;;;;;;;;;15.75;14.50;;;;;7.72;nan;101698.84;5077565;28;45439;-66
2024/02/28 07:23:51;;;;;;;;;17.50;13.50;;;;;7.77;79.80;101703.19;5072555;27;73632;-67
2024/02/28 07:26:16;;;;;;;;;16.25;11.50;;;;;7.80;79.63;101699.72;5074302;27;63340;-66
2024/02/28 07:28:42;;;;;;;;;12.75;10.75;;;;;7.80;79.33;101697.97;5064785;28;45340;-68
2024/02/28 07:31:14;;;;;;;;;17.00;14.50;;;;;7.87;79.46;101705.81;5064868;28;46988;-65
2024/02/28 07:33:40;;;;;;;;;17.75;15.00;;;;;7.92;79.41;101698.84;5066741;28;45816;-66
2024/02/28 07:36:06;;;;;;;;;15.00;10.75;;;;;7.92;78.71;101696.25;5070347;28;45420;-62
2024/02/28 07:38:31;;;;;;;;;17.25;11.00;;;;;7.93;78.66;101695.34;5078488;28;45454;-67
2024/02/28 07:40:56;;;;;;;;;16.25;13.50;;;;;7.91;78.46;101689.28;5066422;28;46003;-62
2024/02/28 07:43:22;;;;;;;;;16.25;11.75;;;;;7.91;78.69;101704.91;5059885;28;74239;-62
2024/02/28 07:45:47;;;;;;;;;17.75;11.25;;;;;7.92;78.55;101707.53;5062451;28;69403;-62
2024/02/28 07:48:12;;;;;;;;;19.75;12.25;;;;;7.93;78.40;101704.06;5066779;28;47843;-60
2024/02/28 07:50:38;;;;;;;;;15.75;11.00;;;;;7.95;78.65;101715.34;5065486;28;46779;-61
2024/02/28 07:53:04;;;;;;;;;13.25;11.75;;;;;7.98;78.66;101712.75;5079414;27;65425;-60
2024/02/28 07:55:29;;;;;;;;;16.75;14.50;;;;;8.04;78.59;101714.50;5067062;28;59561;-60
2024/02/28 07:57:54;;;;;;;;;17.00;15.00;;;;;8.08;78.44;101717.97;5073046;28;73064;-61
2024/02/28 08:00:20;;;;;;;;;20.25;16.75;;;;;8.13;78.42;101713.63;5064543;27;45196;-60
2024/02/28 08:02:46;;;;;;;;;26.25;18.75;;;;;8.17;78.31;101708.38;5068348;27;45311;-61
2024/02/28 08:05:12;;;;;;;;;23.25;16.75;;;;;8.23;78.23;101719.66;5062039;28;45282;-61
2024/02/28 08:07:38;;;;;;;;;19.25;17.00;;;;;8.24;77.98;101717.06;5067287;28;45650;-60
2024/02/28 08:10:07;;;;;;;;;23.00;15.50;;;;;8.29;78.22;101723.13;5063899;28;75631;-60
2024/02/28 08:12:32;;;;;;;;;25.25;21.00;;;;;8.30;77.66;101722.25;5066172;27;45890;-60
2024/02/28 08:14:58;;;;;;;;;24.50;15.50;;;;;8.31;77.74;101731.81;5062671;28;58412;-60
2024/02/28 08:17:23;;;;;;;;;24.00;15.50;;;;;8.30;77.71;101735.28;5072674;28;45531;-59
2024/02/28 08:19:48;;;;;;;;;20.00;15.50;;;;;8.30;77.78;101739.66;5060058;28;46342;-55
2024/02/28 08:22:14;;;;;;;;;22.75;17.50;;;;;8.31;77.71;101741.41;5068929;28;71650;-63
2024/02/28 08:24:39;;;;;;;;;28.25;20.00;;;;;8.32;77.24;101735.28;5064172;28;69457;-62
2024/02/28 08:27:05;;;;;;;;;26.25;17.25;;;;;8.37;77.30;101743.97;5065343;28;45415;-58
2024/02/28 08:29:32;;;;;;;;;21.00;16.00;;;;;8.40;77.46;101743.97;5063888;28;46794;-59
2024/02/28 08:31:58;;;;;;;;;27.25;19.00;;;;;8.41;77.37;101740.53;5067661;27;45769;-59
2024/02/28 08:34:23;;;;;;;;;24.75;21.25;;;;;8.47;77.20;101745.75;5060616;28;45475;-58
2024/02/28 08:36:49;;;;;;;;;23.25;17.75;;;;;8.47;76.92;101750.97;5068692;27;45218;-56
2024/02/28 08:39:14;;;;;;;;;25.00;20.25;;;;;8.51;76.73;101757.03;5073485;27;56267;-58
2024/02/28 08:41:39;;;;;;;;;25.25;22.00;;;;;8.53;76.78;101745.75;5078084;27;71968;-57
2024/02/28 08:44:04;;;;;;;;;23.00;19.50;;;;;8.53;76.59;101750.06;5086264;27;59705;-60
2024/02/28 08:46:30;;;;;;;;;23.00;18.00;;;;;8.54;76.74;101738.78;5068036;27;60939;-59
2024/02/28 08:48:55;;;;;;;;;29.50;21.50;;;;;8.56;76.57;101734.41;5065917;27;45301;-60
2024/02/28 08:51:21;;;;;;;;;26.75;19.50;;;;;8.58;76.32;101729.19;5060894;27;45338;-60
2024/02/28 08:53:46;;;;;;;;;30.25;20.75;;;;;8.62;76.30;101723.09;5072506;28;45401;-59
2024/02/28 08:56:12;;;;;;;;;31.00;22.75;;;;;8.71;76.50;101721.34;5077967;27;68066;-60
2024/02/28 08:58:37;;;;;;;;;28.50;23.75;;;;;8.84;76.22;101724.75;5072973;28;45370;-58
2024/02/28 09:01:04;;;;;;;;;27.75;21.50;;;;;9.01;76.31;101729.03;5070940;27;45438;-58
2024/02/28 09:03:29;;;;;;;;;25.50;23.00;;;;;9.20;75.73;101719.38;5084455;27;45601;-60
2024/02/28 09:05:54;;;;;;;;;27.75;24.00;;;;;9.39;75.16;101728.84;5064181;27;50937;-59
2024/02/28 09:08:20;;;;;;;;;31.25;22.75;;;;;9.59;74.96;101730.47;5063190;27;59935;-58
2024/02/28 09:10:46;;;;;;;;;23.25;21.00;;;;;9.78;74.73;101725.97;5071983;27;72711;-61
2024/02/28 09:13:12;;;;;;;;;27.00;23.00;;;;;9.97;74.39;101729.28;5091599;27;45407;-61
2024/02/28 09:15:37;;;;;;;;;25.75;20.50;;;;;10.12;73.47;101729.16;5069842;27;45431;-61
2024/02/28 09:18:03;;;;;;;;;27.25;21.25;;;;;10.28;73.29;101729.88;5075872;28;46061;-62
2024/02/28 09:20:28;;;;;;;;;33.50;24.75;;;;;10.35;72.59;101726.34;5065237;28;45226;-62
2024/02/28 09:22:53;;;;;;;;;25.75;24.00;;;;;10.40;72.08;101731.56;5062158;27;54193;-62
2024/02/28 09:25:21;;;;;;;;;28.75;24.50;;;;;10.45;71.96;101730.63;5067512;28;65807;-64
2024/02/28 09:27:46;;;;;;;;;29.00;24.00;;;;;10.57;71.48;101726.13;5070886;28;47036;-62
2024/02/28 09:30:12;;;;;;;;;23.50;21.00;;;;;10.64;71.46;101733.00;5070955;27;45252;-61
2024/02/28 09:32:37;;;;;;;;;27.75;22.25;;;;;10.68;70.87;101734.75;5078509;27;45371;-62
2024/02/28 09:35:04;;;;;;;;;25.75;20.75;;;;;10.71;70.50;101736.44;5071955;28;45414;-62
2024/02/28 09:37:30;;;;;;;;;22.00;19.50;;;;;10.74;70.24;101739.88;5070155;28;46460;-62
2024/02/28 09:39:55;;;;;;;;;22.25;21.00;;;;;10.78;70.08;101735.47;5070988;28;45184;-60
2024/02/28 09:42:20;;;;;;;;;22.00;18.75;;;;;10.85;69.81;101737.13;5062674;28;64377;-59
2024/02/28 09:44:46;;;;;;;;;22.25;18.75;;;;;10.93;69.33;101743.16;5060216;28;71010;-63
2024/02/28 09:47:11;;;;;;;;;22.75;16.00;;;;;10.95;68.99;101738.78;5062776;28;59435;-63
2024/02/28 09:49:40;;;;;;;;;23.75;20.00;;;;;11.05;69.03;101736.91;5070477;28;45436;-63
2024/02/28 09:52:05;;;;;;;;;20.75;18.75;;;;;11.12;68.79;101742.91;5071643;28;45451;-63
2024/02/28 09:54:31;;;;;;;;;20.25;16.00;;;;;11.19;68.44;101741.94;5058680;28;45387;-62
2024/02/28 09:56:57;;;;;;;;;19.00;14.75;;;;;11.31;67.97;101738.31;5071938;28;46166;-61
2024/02/28 09:59:23;;;;;;;;;17.00;13.25;;;;;11.45;67.99;101738.13;5059539;28;45300;-62
2024/02/28 10:01:56;;;;;;;;;18.00;13.00;;;;;11.59;67.79;101737.00;5080030;27;45391;-62
2024/02/28 10:04:25;;;;;;;;;16.00;14.00;;;;;11.73;66.55;101735.94;5070892;28;45375;-61
2024/02/28 10:06:51;;;;;;;;;15.50;13.00;;;;;11.85;66.40;101741.00;5063857;28;45611;-61
2024/02/28 10:09:16;;;;;;;;;15.00;12.00;;;;;12.00;66.04;101737.28;5061464;28;73331;-59
2024/02/28 10:11:43;;;;;;;;;18.25;13.25;;;;;12.18;65.78;101749.22;5072331;27;68119;-59
2024/02/28 10:14:08;;;;;;;;;14.50;13.00;;;;;12.28;65.38;101753.41;5060600;28;45417;-59
2024/02/28 10:16:34;;;;;;;;;17.75;16.00;;;;;12.37;64.94;101741.88;5063368;28;48506;-62
2024/02/28 10:18:59;;;;;;;;;19.75;17.50;;;;;12.44;65.00;101738.25;5066863;28;45242;-61
2024/02/28 10:21:26;;;;;;;;;20.00;14.75;;;;;12.51;64.48;101744.25;5075036;28;69323;-61
2024/02/28 10:23:51;;;;;;;;;23.50;17.75;;;;;12.61;64.58;101739.72;5066736;28;45445;-60
2024/02/28 10:26:16;;;;;;;;;18.25;16.50;;;;;12.76;64.09;101749.03;5086807;27;47752;-62
2024/02/28 10:28:43;;;;;;;;;17.25;14.75;;;;;12.88;63.21;101744.38;5058279;28;52074;-62
2024/02/28 10:31:10;;;;;;;;;18.25;13.25;;;;;13.03;63.34;101743.22;5067107;27;45512;-63
2024/02/28 10:33:36;;;;;;;;;17.75;12.50;;;;;13.11;62.13;101753.56;5066363;27;45497;-63
2024/02/28 10:36:05;;;;;;;;;55.25;45.00;;;;;13.17;61.78;101753.41;5069769;28;46500;-62
2024/02/28 10:38:33;;;;;;;;;73.25;56.25;;;;;13.18;61.26;101760.41;5070956;28;45749;-59
2024/02/28 10:41:00;;;;;;;;;13.00;12.00;;;;;13.23;61.42;101760.34;5072908;27;45460;-61
2024/02/28 10:43:28;;;;;;;;;12.25;10.00;;;;;13.26;60.89;101755.88;5069781;28;45490;-61
2024/02/28 10:45:56;;;;;;;;;17.00;10.00;;;;;13.31;60.59;101758.41;5075665;28;46427;-59
2024/02/28 10:48:22;;;;;;;;;11.50;10.00;;;;;13.30;60.31;101762.78;5077894;27;45477;-59
2024/02/28 10:50:49;;;;;;;;;39.50;32.00;;;;;13.32;60.48;101761.94;5073149;27;65959;-60
2024/02/28 10:53:17;;;;;;;;;15.00;10.00;;;;;13.31;60.17;101763.69;5078406;27;73165;-60
2024/02/28 10:55:46;;;;;;;;;18.75;13.75;;;;;13.36;60.26;101764.44;5070886;27;46267;-59
2024/02/28 10:58:14;;;;;;;;;18.50;13.50;;;;;13.40;60.55;101760.88;5078934;27;45388;-59
2024/02/28 11:00:47;;;;;;;;;15.25;12.50;;;;;13.39;59.81;101758.28;5073053;27;67180;-61
2024/02/28 11:03:13;;;;;;;;;15.75;12.00;;;;;13.39;59.85;101756.50;5091560;27;45417;-64
2024/02/28 11:05:40;;;;;;;;;13.75;11.00;;;;;13.40;59.59;101766.13;5080816;28;46511;-63
2024/02/28 11:08:21;;;;;;;;;15.00;13.50;;;;;13.41;59.52;101769.63;5067281;27;45832;-62
2024/02/28 11:10:47;;;;;;;;;15.25;13.25;;;;;13.42;59.38;101766.06;5075190;27;45560;-63
2024/02/28 11:13:26;;;;;;;;;17.50;13.50;;;;;13.45;59.60;101772.13;5075117;27;45348;-62